createdAt,value
2023-05-11T00:00:52.197Z,99.90
2023-05-11T00:03:19.077Z,99.90
2023-05-11T00:05:49.371Z,99.90
2023-05-11T00:08:17.329Z,99.90
2023-05-11T00:10:47.872Z,99.90
2023-05-11T00:13:15.224Z,99.90
2023-05-11T00:15:42.052Z,99.90
2023-05-11T00:18:09.010Z,99.90
2023-05-11T00:20:35.944Z,99.90
2023-05-11T00:23:02.682Z,99.90
2023-05-11T00:25:29.341Z,99.90
2023-05-11T00:27:56.069Z,99.90
2023-05-11T00:30:22.800Z,99.90
2023-05-11T00:32:52.145Z,99.90
2023-05-11T00:35:19.299Z,99.90
2023-05-11T00:37:46.035Z,99.90
2023-05-11T00:40:12.976Z,99.90
2023-05-11T00:42:39.701Z,99.90
2023-05-11T00:45:07.064Z,99.90
2023-05-11T00:47:33.853Z,99.90
2023-05-11T00:50:00.654Z,99.90
2023-05-11T00:52:27.961Z,99.90
2023-05-11T00:54:54.762Z,99.90
2023-05-11T00:57:21.649Z,99.90
2023-05-11T00:59:49.410Z,99.90
2023-05-11T01:02:16.679Z,99.90
2023-05-11T01:04:44.328Z,99.90
2023-05-11T01:07:34.768Z,99.90
2023-05-11T01:10:33.174Z,99.90
2023-05-11T01:13:02.753Z,99.90
2023-05-11T01:15:47.834Z,99.90
2023-05-11T01:18:35.145Z,99.90
2023-05-11T01:21:09.465Z,99.90
2023-05-11T01:23:56.262Z,99.90
2023-05-11T01:26:37.322Z,99.90
2023-05-11T01:29:06.760Z,99.90
2023-05-11T01:31:34.847Z,99.90
2023-05-11T01:34:05.020Z,99.90
2023-05-11T01:36:42.752Z,99.90
2023-05-11T01:39:12.516Z,99.90
2023-05-11T01:41:41.914Z,99.90
2023-05-11T01:44:10.712Z,99.90
2023-05-11T01:46:38.607Z,99.90
2023-05-11T01:49:09.776Z,99.90
2023-05-11T01:51:38.441Z,99.90
2023-05-11T01:54:09.349Z,99.90
2023-05-11T01:56:37.736Z,99.90
2023-05-11T01:59:05.492Z,99.90
2023-05-11T02:01:35.769Z,99.90
2023-05-11T02:04:04.509Z,99.90
2023-05-11T02:06:35.362Z,99.90
2023-05-11T02:09:03.345Z,99.90
2023-05-11T02:11:33.626Z,99.90
2023-05-11T02:14:01.845Z,99.90
2023-05-11T02:16:29.414Z,99.90
2023-05-11T02:18:57.538Z,99.90
2023-05-11T02:21:26.489Z,99.90
2023-05-11T02:23:54.125Z,99.90
2023-05-11T02:26:21.836Z,99.90
2023-05-11T02:28:49.752Z,99.90
2023-05-11T02:31:30.136Z,99.90
2023-05-11T02:34:03.775Z,99.90
2023-05-11T02:36:33.485Z,99.90
2023-05-11T02:39:06.960Z,99.90
2023-05-11T02:41:41.659Z,99.90
2023-05-11T02:44:12.091Z,99.90
2023-05-11T02:46:40.311Z,99.90
2023-05-11T02:49:10.124Z,99.90
2023-05-11T02:51:39.313Z,99.90
2023-05-11T02:54:10.690Z,99.90
2023-05-11T02:56:41.544Z,99.90
2023-05-11T02:59:08.860Z,99.90
2023-05-11T03:01:36.052Z,99.90
2023-05-11T03:04:05.854Z,99.90
2023-05-11T03:06:33.427Z,99.90
2023-05-11T03:09:02.069Z,99.90
2023-05-11T03:11:30.852Z,99.90
2023-05-11T03:13:58.594Z,99.90
2023-05-11T03:16:26.743Z,99.90
2023-05-11T03:18:55.611Z,99.90
2023-05-11T03:21:23.965Z,99.90
2023-05-11T03:23:51.054Z,99.90
2023-05-11T03:26:19.274Z,99.90
2023-05-11T03:28:48.185Z,99.90
2023-05-11T03:31:15.008Z,99.90
2023-05-11T03:33:41.918Z,99.90
2023-05-11T03:36:11.887Z,99.90
2023-05-11T03:38:39.835Z,99.90
2023-05-11T03:41:10.499Z,99.90
2023-05-11T03:43:39.051Z,99.90
2023-05-11T03:46:07.228Z,99.90
2023-05-11T03:48:34.487Z,99.90
2023-05-11T03:51:01.531Z,99.90
2023-05-11T03:53:28.388Z,99.90
2023-05-11T03:55:55.864Z,99.90
2023-05-11T03:58:23.390Z,99.90
2023-05-11T04:00:50.483Z,99.90
2023-05-11T04:03:18.298Z,99.90
2023-05-11T04:05:45.398Z,99.90
2023-05-11T04:08:13.209Z,99.90
2023-05-11T04:10:39.976Z,99.90
2023-05-11T04:13:06.804Z,99.90
2023-05-11T04:15:33.480Z,99.90
2023-05-11T04:18:00.370Z,99.90
2023-05-11T04:20:27.181Z,99.90
2023-05-11T04:22:54.559Z,99.90
2023-05-11T04:25:21.422Z,99.90
2023-05-11T04:27:48.141Z,99.90
2023-05-11T04:30:15.307Z,99.90
2023-05-11T04:32:42.129Z,99.90
2023-05-11T04:35:11.379Z,99.90
2023-05-11T04:37:41.467Z,99.90
2023-05-11T04:40:11.382Z,99.90
2023-05-11T04:42:42.934Z,99.90
2023-05-11T04:45:15.933Z,99.90
2023-05-11T04:47:44.102Z,99.90
2023-05-11T04:50:12.158Z,99.90
2023-05-11T04:52:40.129Z,99.90
2023-05-11T04:55:09.108Z,99.90
2023-05-11T04:57:39.010Z,99.90
2023-05-11T05:00:09.712Z,99.90
2023-05-11T05:02:37.411Z,99.90
2023-05-11T05:05:04.989Z,99.90
2023-05-11T05:07:32.565Z,99.90
2023-05-11T05:10:00.232Z,99.90
2023-05-11T05:12:27.663Z,99.90
2023-05-11T05:14:55.248Z,99.90
2023-05-11T05:17:22.305Z,99.90
2023-05-11T05:19:51.821Z,99.90
2023-05-11T05:22:20.337Z,99.90
2023-05-11T05:24:48.738Z,99.90
2023-05-11T05:27:16.156Z,99.90
2023-05-11T05:29:43.662Z,99.90
2023-05-11T05:32:11.722Z,99.90
2023-05-11T05:34:39.245Z,99.90
2023-05-11T05:37:07.820Z,99.90
2023-05-11T05:39:36.911Z,99.90
2023-05-11T05:42:04.724Z,99.90
2023-05-11T05:44:32.593Z,99.90
2023-05-11T05:47:01.190Z,99.90
2023-05-11T05:49:34.408Z,99.90
2023-05-11T05:52:04.239Z,99.90
2023-05-11T05:54:33.234Z,99.90
2023-05-11T05:57:02.096Z,99.90
2023-05-11T05:59:30.333Z,99.90
2023-05-11T06:01:58.832Z,99.90
2023-05-11T06:04:26.076Z,99.90
2023-05-11T06:06:57.112Z,99.90
2023-05-11T06:09:24.805Z,99.90
2023-05-11T06:11:54.841Z,99.90
2023-05-11T06:14:24.624Z,99.90
2023-05-11T06:16:54.659Z,99.90
2023-05-11T06:19:22.158Z,99.90
2023-05-11T06:21:53.402Z,99.90
2023-05-11T06:24:22.963Z,99.90
2023-05-11T06:26:54.682Z,99.90
2023-05-11T06:29:23.167Z,99.90
2023-05-11T06:31:54.121Z,99.90
2023-05-11T06:34:22.123Z,99.90
2023-05-11T06:36:50.488Z,99.90
2023-05-11T06:39:19.139Z,99.90
2023-05-11T06:41:48.019Z,99.90
2023-05-11T06:44:17.183Z,99.90
2023-05-11T06:46:45.363Z,99.90
2023-05-11T06:49:13.783Z,99.90
2023-05-11T06:51:43.187Z,99.90
2023-05-11T06:54:12.422Z,99.90
2023-05-11T06:56:41.385Z,99.90
2023-05-11T06:59:09.625Z,99.90
2023-05-11T07:01:38.170Z,99.90
2023-05-11T07:04:06.659Z,99.90
2023-05-11T07:06:42.512Z,99.90
2023-05-11T07:09:16.274Z,99.90
2023-05-11T07:11:46.170Z,99.90
2023-05-11T07:14:15.387Z,99.90
2023-05-11T07:20:43.340Z,99.90
2023-05-11T07:23:11.392Z,99.90
2023-05-11T07:25:38.148Z,99.90
2023-05-11T07:28:04.923Z,99.90
2023-05-11T07:30:31.757Z,99.90
2023-05-11T07:32:58.502Z,99.90
2023-05-11T07:35:25.198Z,99.90
2023-05-11T07:37:51.906Z,99.90
2023-05-11T07:40:18.947Z,99.90
2023-05-11T07:42:45.899Z,99.90
2023-05-11T07:45:12.675Z,99.90
2023-05-11T07:47:39.435Z,99.90
2023-05-11T07:50:07.231Z,99.90
2023-05-11T07:52:34.432Z,99.90
2023-05-11T07:55:01.266Z,99.90
2023-05-11T07:57:28.221Z,99.90
2023-05-11T07:59:54.857Z,99.90
2023-05-11T08:02:21.689Z,99.90
2023-05-11T08:04:48.436Z,99.90
2023-05-11T08:07:15.312Z,99.90
2023-05-11T08:09:42.783Z,99.90
2023-05-11T08:12:09.858Z,99.90
2023-05-11T08:14:37.593Z,99.90
2023-05-11T08:17:04.422Z,99.90
2023-05-11T08:19:31.128Z,99.90
2023-05-11T08:21:57.917Z,99.90
2023-05-11T08:24:24.628Z,99.90
2023-05-11T08:26:51.344Z,99.90
2023-05-11T08:29:18.074Z,99.90
2023-05-11T08:31:44.835Z,99.90
2023-05-11T08:34:19.074Z,99.90
2023-05-11T08:36:47.388Z,99.90
2023-05-11T08:39:14.230Z,99.90
2023-05-11T08:41:41.077Z,99.90
2023-05-11T08:44:09.217Z,99.90
2023-05-11T08:46:40.021Z,99.90
2023-05-11T08:49:08.650Z,99.90
2023-05-11T08:51:35.431Z,99.90
2023-05-11T08:54:04.384Z,99.90
2023-05-11T08:56:31.889Z,99.90
2023-05-11T08:58:59.017Z,99.90
2023-05-11T09:01:28.929Z,99.90
2023-05-11T09:03:56.925Z,99.90
2023-05-11T09:06:25.051Z,99.90
2023-05-11T09:08:52.886Z,99.90
2023-05-11T09:11:19.868Z,99.90
2023-05-11T09:13:47.092Z,99.90
2023-05-11T09:18:48.200Z,99.90
2023-05-11T09:21:15.046Z,99.90
2023-05-11T09:23:41.930Z,99.90
2023-05-11T09:26:15.226Z,99.90
2023-05-11T09:29:02.496Z,99.90
2023-05-11T09:31:35.609Z,99.90
2023-05-11T09:34:19.516Z,99.90
2023-05-11T09:36:50.787Z,99.90
2023-05-11T09:39:35.013Z,99.90
2023-05-11T09:42:18.872Z,99.90
2023-05-11T09:44:46.864Z,99.90
2023-05-11T09:47:22.496Z,99.90
2023-05-11T09:49:49.830Z,99.90
2023-05-11T09:52:18.657Z,99.90
2023-05-11T09:54:50.765Z,99.90
2023-05-11T09:57:31.157Z,99.90
2023-05-11T09:59:59.410Z,99.90
2023-05-11T10:02:28.394Z,99.90
2023-05-11T10:04:58.959Z,99.90
2023-05-11T10:07:27.871Z,99.90
2023-05-11T10:09:56.382Z,99.90
2023-05-11T10:12:25.600Z,99.90
2023-05-11T10:14:56.772Z,99.90
2023-05-11T10:17:25.134Z,99.90
2023-05-11T10:19:55.636Z,99.90
2023-05-11T10:22:23.217Z,99.90
2023-05-11T10:24:50.516Z,99.90
2023-05-11T10:27:21.053Z,99.90
2023-05-11T10:29:48.601Z,99.90
2023-05-11T10:32:17.802Z,99.90
2023-05-11T10:34:46.393Z,99.90
2023-05-11T10:37:15.239Z,99.90
2023-05-11T10:39:44.068Z,99.90
2023-05-11T10:42:42.527Z,99.90
2023-05-11T10:45:33.508Z,99.90
2023-05-11T10:48:14.233Z,99.90
2023-05-11T10:51:02.728Z,99.90
2023-05-11T10:53:35.252Z,99.90
2023-05-11T10:56:33.522Z,99.90
2023-05-11T10:59:22.413Z,99.90
2023-05-11T11:01:58.895Z,99.90
2023-05-11T11:04:26.911Z,99.90
2023-05-11T11:07:06.330Z,99.90
2023-05-11T11:09:59.206Z,99.90
2023-05-11T11:12:28.701Z,99.90
2023-05-11T11:15:02.167Z,99.90
2023-05-11T11:17:37.996Z,99.90
2023-05-11T11:20:09.974Z,99.90
2023-05-11T11:22:41.084Z,99.90
2023-05-11T11:25:12.049Z,99.90
2023-05-11T11:27:41.765Z,99.90
2023-05-11T11:30:23.046Z,99.90
2023-05-11T11:32:51.997Z,99.90
2023-05-11T11:35:43.858Z,99.90
2023-05-11T11:38:18.498Z,99.90
2023-05-11T11:40:53.100Z,99.90
2023-05-11T11:43:28.756Z,99.90
2023-05-11T11:46:02.890Z,99.90
2023-05-11T11:48:31.409Z,99.90
2023-05-11T11:51:10.377Z,99.90
2023-05-11T11:53:37.360Z,99.90
2023-05-11T11:56:05.800Z,99.90
2023-05-11T11:58:41.873Z,99.90
2023-05-11T12:01:09.298Z,99.60
2023-05-11T12:03:37.544Z,99.90
2023-05-11T12:06:09.113Z,99.50
2023-05-11T12:08:37.251Z,99.20
2023-05-11T12:11:05.718Z,98.50
2023-05-11T12:13:33.455Z,98.20
2023-05-11T12:16:17.041Z,97.70
2023-05-11T12:18:53.708Z,97.40
2023-05-11T12:21:27.668Z,97.30
2023-05-11T12:24:02.499Z,97.10
2023-05-11T12:26:30.797Z,97.70
2023-05-11T12:29:07.913Z,97.60
2023-05-11T12:31:41.745Z,97.80
2023-05-11T12:34:16.056Z,98.10
2023-05-11T12:36:44.371Z,97.40
2023-05-11T12:39:21.603Z,97.80
2023-05-11T12:41:49.620Z,97.60
2023-05-11T12:44:17.458Z,97.10
2023-05-11T12:46:49.190Z,96.60
2023-05-11T12:52:00.893Z,96.30
2023-05-11T12:54:28.650Z,96.00
2023-05-11T12:56:55.916Z,96.50
2023-05-11T12:59:37.564Z,96.70
2023-05-11T13:02:18.596Z,96.70
2023-05-11T13:04:46.983Z,96.90
2023-05-11T13:07:23.233Z,95.90
2023-05-11T13:10:00.794Z,95.40
2023-05-11T13:12:31.647Z,96.00
2023-05-11T13:15:12.514Z,96.20
2023-05-11T13:17:41.364Z,96.90
2023-05-11T13:20:21.001Z,96.90
2023-05-11T13:22:48.833Z,97.40
2023-05-11T13:25:18.366Z,96.80
2023-05-11T13:27:45.505Z,96.90
2023-05-11T13:30:12.755Z,97.40
2023-05-11T13:32:39.703Z,98.00
2023-05-11T13:35:06.948Z,99.90
2023-05-11T13:37:33.655Z,99.90
2023-05-11T13:40:00.827Z,99.90
2023-05-11T13:42:28.535Z,99.90
2023-05-11T13:44:55.281Z,99.90
2023-05-11T13:47:22.180Z,99.90
2023-05-11T13:49:48.919Z,99.90
2023-05-11T13:52:15.794Z,99.90
2023-05-11T13:54:42.450Z,99.90
2023-05-11T13:57:09.219Z,99.90
2023-05-11T13:59:35.979Z,99.90
2023-05-11T14:02:02.858Z,99.90
2023-05-11T14:04:29.587Z,99.90
2023-05-11T14:06:56.545Z,99.90
2023-05-11T14:09:23.529Z,99.90
2023-05-11T14:11:50.694Z,99.90
2023-05-11T14:14:17.711Z,99.90
2023-05-11T14:16:44.720Z,99.90
2023-05-11T14:19:11.651Z,99.90
2023-05-11T14:21:38.557Z,99.90
2023-05-11T14:24:12.002Z,99.90
2023-05-11T14:26:40.074Z,99.90
2023-05-11T14:29:06.945Z,99.90
2023-05-11T14:31:35.399Z,99.90
2023-05-11T14:34:03.611Z,99.90
2023-05-11T14:36:31.625Z,99.90
2023-05-11T14:38:58.361Z,99.90
2023-05-11T14:41:25.511Z,99.90
2023-05-11T14:43:52.226Z,99.90
2023-05-11T14:46:19.449Z,99.90
2023-05-11T14:48:46.196Z,99.90
2023-05-11T14:51:12.835Z,99.90
2023-05-11T14:53:39.577Z,99.90
2023-05-11T14:56:07.038Z,99.90
2023-05-11T14:58:33.787Z,99.90
2023-05-11T15:01:00.785Z,99.90
2023-05-11T15:03:27.702Z,99.90
2023-05-11T15:05:54.402Z,99.90
2023-05-11T15:08:29.475Z,99.90
2023-05-11T15:10:57.835Z,99.90
2023-05-11T15:13:24.722Z,99.90
2023-05-11T15:15:51.702Z,99.90
2023-05-11T15:18:18.973Z,99.90
2023-05-11T15:20:46.676Z,99.90
2023-05-11T15:23:16.626Z,99.90
2023-05-11T15:25:46.963Z,99.90
2023-05-11T15:28:14.161Z,99.90
2023-05-11T15:30:41.990Z,99.90
2023-05-11T15:33:09.848Z,99.90
2023-05-11T15:35:36.973Z,99.90
2023-05-11T15:38:04.213Z,99.90
2023-05-11T15:40:30.929Z,99.90
2023-05-11T15:42:58.813Z,99.90
2023-05-11T15:45:26.164Z,99.90
2023-05-11T15:47:54.037Z,99.90
2023-05-11T15:50:21.479Z,99.90
2023-05-11T15:52:48.330Z,99.90
2023-05-11T15:55:15.107Z,99.90
2023-05-11T15:57:41.877Z,99.90
2023-05-11T16:00:11.134Z,99.90
2023-05-11T16:02:38.070Z,99.90
2023-05-11T16:05:05.108Z,99.90
2023-05-11T16:07:31.835Z,99.90
2023-05-11T16:09:58.593Z,99.90
2023-05-11T16:12:25.924Z,99.90
2023-05-11T16:14:52.563Z,99.90
2023-05-11T16:17:19.294Z,99.90
2023-05-11T16:19:45.992Z,99.90
2023-05-11T16:22:13.130Z,99.90
2023-05-11T16:24:39.785Z,99.90
2023-05-11T16:27:06.465Z,99.90
2023-05-11T16:29:33.479Z,99.90
2023-05-11T16:32:00.433Z,99.90
2023-05-11T16:34:27.475Z,99.90
2023-05-11T16:36:54.503Z,99.90
2023-05-11T16:39:21.984Z,99.90
2023-05-11T16:41:48.648Z,99.90
2023-05-11T16:44:16.307Z,99.90
2023-05-11T16:46:42.982Z,99.90
2023-05-11T16:49:09.644Z,99.90
2023-05-11T16:51:36.291Z,99.90
2023-05-11T16:54:02.980Z,99.90
2023-05-11T16:56:29.628Z,99.90
2023-05-11T16:58:56.296Z,99.90
2023-05-11T17:01:23.018Z,99.90
2023-05-11T17:03:49.753Z,99.90
2023-05-11T17:06:20.781Z,99.90
2023-05-11T17:08:47.772Z,99.90
2023-05-11T17:11:14.560Z,99.90
2023-05-11T17:13:41.297Z,99.90
2023-05-11T17:16:07.983Z,99.90
2023-05-11T17:18:34.952Z,99.90
2023-05-11T17:21:01.687Z,99.90
2023-05-11T17:23:28.554Z,99.90
2023-05-11T17:25:55.358Z,99.90
2023-05-11T17:28:22.163Z,99.90
2023-05-11T17:30:52.682Z,99.90
2023-05-11T17:33:19.956Z,99.90
2023-05-11T17:35:46.666Z,99.90
2023-05-11T17:38:13.350Z,99.90
2023-05-11T17:40:40.006Z,99.90
2023-05-11T17:43:06.909Z,99.90
2023-05-11T17:45:34.039Z,99.90
2023-05-11T17:48:00.881Z,99.90
2023-05-11T17:50:27.864Z,99.90
2023-05-11T17:52:54.580Z,99.90
2023-05-11T17:55:21.583Z,99.90
2023-05-11T17:57:48.791Z,99.90
2023-05-11T18:00:15.789Z,99.90
2023-05-11T18:02:42.578Z,99.90
2023-05-11T18:05:09.529Z,99.90
2023-05-11T18:07:36.304Z,99.90
2023-05-11T18:10:03.457Z,99.90
2023-05-11T18:12:32.093Z,99.90
2023-05-11T18:14:59.877Z,99.90
2023-05-11T18:17:27.046Z,99.90
2023-05-11T18:19:53.768Z,99.90
2023-05-11T18:22:20.445Z,99.90
2023-05-11T18:24:47.085Z,99.90
2023-05-11T18:27:13.716Z,99.90
2023-05-11T18:29:42.658Z,99.90
2023-05-11T18:32:09.349Z,99.90
2023-05-11T18:34:36.152Z,99.90
2023-05-11T18:37:02.990Z,99.90
2023-05-11T18:39:29.719Z,99.90
2023-05-11T18:42:00.840Z,99.90
2023-05-11T18:44:28.099Z,99.90
2023-05-11T18:46:54.802Z,99.90
2023-05-11T18:49:21.954Z,99.90
2023-05-11T18:51:49.110Z,99.90
2023-05-11T18:54:15.799Z,99.90
2023-05-11T18:56:42.662Z,99.90
2023-05-11T18:59:09.327Z,99.90
2023-05-11T19:01:47.109Z,99.90
2023-05-11T19:04:17.620Z,99.90
2023-05-11T19:06:44.289Z,99.90
2023-05-11T19:09:11.063Z,99.90
2023-05-11T19:11:37.942Z,99.90
2023-05-11T19:14:04.793Z,99.90
2023-05-11T19:16:32.962Z,99.90
2023-05-11T19:18:59.833Z,99.90
2023-05-11T19:21:26.660Z,99.90
2023-05-11T19:23:53.405Z,99.90
2023-05-11T19:26:20.082Z,99.90
2023-05-11T19:28:46.740Z,99.90
2023-05-11T19:31:13.376Z,99.90
2023-05-11T19:33:40.031Z,99.90
2023-05-11T19:36:07.201Z,99.90
2023-05-11T19:38:35.800Z,99.90
2023-05-11T19:41:03.099Z,99.90
2023-05-11T19:43:29.737Z,99.90
2023-05-11T19:45:56.514Z,99.90
2023-05-11T19:48:23.255Z,99.90
2023-05-11T19:50:49.960Z,99.90
2023-05-11T19:53:16.905Z,99.90
2023-05-11T19:55:45.403Z,99.90
2023-05-11T19:58:14.410Z,99.90
2023-05-11T20:00:41.307Z,99.90
2023-05-11T20:03:08.465Z,99.90
2023-05-11T20:05:35.225Z,99.90
2023-05-11T20:08:02.276Z,99.90
2023-05-11T20:10:29.050Z,99.90
2023-05-11T20:12:56.804Z,99.90
2023-05-11T20:15:23.476Z,99.90
2023-05-11T20:17:50.861Z,99.90
2023-05-11T20:20:17.953Z,99.90
2023-05-11T20:22:44.740Z,99.90
2023-05-11T20:25:18.385Z,99.90
2023-05-11T20:27:46.426Z,99.90
2023-05-11T20:30:13.647Z,99.90
2023-05-11T20:35:28.017Z,99.90
2023-05-11T20:37:55.107Z,99.90
2023-05-11T20:40:22.038Z,99.90
2023-05-11T20:42:48.745Z,99.90
2023-05-11T20:45:15.470Z,99.90
2023-05-11T20:47:42.599Z,99.90
2023-05-11T20:50:10.104Z,99.90
2023-05-11T20:52:37.315Z,99.90
2023-05-11T20:55:04.358Z,99.90
2023-05-11T20:57:31.069Z,99.90
2023-05-11T21:02:28.308Z,99.90
2023-05-11T21:05:01.562Z,99.90
2023-05-11T21:07:29.338Z,99.90
2023-05-11T21:09:56.049Z,99.90
2023-05-11T21:12:22.750Z,99.90
2023-05-11T21:14:49.383Z,99.90
2023-05-11T21:17:16.191Z,99.90
2023-05-11T21:19:42.862Z,99.90
2023-05-11T21:22:09.575Z,99.90
2023-05-11T21:24:37.661Z,99.90
2023-05-11T21:27:04.561Z,99.90
2023-05-11T21:29:31.342Z,99.90
2023-05-11T21:31:58.000Z,99.90
2023-05-11T21:34:24.783Z,99.90
2023-05-11T21:36:51.452Z,99.90
2023-05-11T21:39:18.129Z,99.90
2023-05-11T21:41:44.801Z,99.90
2023-05-11T21:44:11.576Z,99.90
2023-05-11T21:46:38.357Z,99.90
2023-05-11T21:49:05.063Z,99.90
2023-05-11T21:51:32.983Z,99.90
2023-05-11T21:54:00.172Z,99.90
2023-05-11T21:56:27.529Z,99.90
2023-05-11T21:58:54.219Z,99.90
2023-05-11T22:01:20.986Z,99.90
2023-05-11T22:03:47.798Z,99.90
2023-05-11T22:06:14.575Z,99.90
2023-05-11T22:08:41.247Z,99.90
2023-05-11T22:11:07.892Z,99.90
2023-05-11T22:13:34.796Z,99.90
2023-05-11T22:16:01.540Z,99.90
2023-05-11T22:18:28.312Z,99.90
2023-05-11T22:20:54.973Z,99.90
2023-05-11T22:23:21.720Z,99.90
2023-05-11T22:25:48.405Z,99.90
2023-05-11T22:28:15.084Z,99.90
2023-05-11T22:30:41.853Z,99.90
2023-05-11T22:33:08.478Z,99.90
2023-05-11T22:35:35.152Z,99.90
2023-05-11T22:38:02.031Z,99.90
2023-05-11T22:40:28.718Z,99.90
2023-05-11T22:42:55.363Z,99.90
2023-05-11T22:45:22.152Z,99.90
2023-05-11T22:47:48.974Z,99.90
2023-05-11T22:50:15.724Z,99.90
2023-05-11T22:52:42.411Z,99.90
2023-05-11T22:55:09.550Z,99.90
2023-05-11T22:57:36.205Z,99.90
2023-05-11T23:00:03.890Z,99.90
2023-05-11T23:02:33.290Z,99.90
2023-05-11T23:05:00.056Z,99.90
2023-05-11T23:07:26.912Z,99.90
2023-05-11T23:09:53.563Z,99.90
2023-05-11T23:12:20.315Z,99.90
2023-05-11T23:14:47.128Z,99.90
2023-05-11T23:17:13.958Z,99.90
2023-05-11T23:19:40.709Z,99.90
2023-05-11T23:22:07.578Z,99.90
2023-05-11T23:24:34.399Z,99.90
2023-05-11T23:27:01.431Z,99.90
2023-05-11T23:29:28.168Z,99.90
2023-05-11T23:31:55.889Z,99.90
2023-05-11T23:34:22.574Z,99.90
2023-05-11T23:36:49.341Z,99.90
2023-05-11T23:39:16.012Z,99.90
2023-05-11T23:41:42.662Z,99.90
2023-05-11T23:44:09.750Z,99.90
2023-05-11T23:46:36.450Z,99.90
2023-05-11T23:49:03.272Z,99.90
2023-05-11T23:51:29.998Z,99.90
2023-05-11T23:53:56.660Z,99.90
2023-05-11T23:56:23.324Z,99.90
2023-05-11T23:58:50.581Z,99.90
